createdAt,value
2017-09-20T00:00:29.667Z,0
2017-09-20T00:01:29.411Z,0
2017-09-20T00:02:29.321Z,0
2017-09-20T00:03:28.994Z,0
2017-09-20T00:04:29.291Z,0
2017-09-20T00:05:29.339Z,0
2017-09-20T00:06:29.248Z,0
2017-09-20T00:07:28.940Z,0
2017-09-20T00:08:28.911Z,0
2017-09-20T00:09:28.875Z,0
2017-09-20T00:10:28.863Z,0
2017-09-20T00:11:29.498Z,0
2017-09-20T00:12:29.140Z,0
2017-09-20T00:13:29.119Z,0
2017-09-20T00:14:29.112Z,0
2017-09-20T00:15:29.412Z,0
2017-09-20T00:16:29.068Z,0
2017-09-20T00:17:29.052Z,0
2017-09-20T00:18:28.729Z,0
2017-09-20T00:19:29.060Z,0
2017-09-20T00:20:29.001Z,0
2017-09-20T00:21:29.089Z,0
2017-09-20T00:22:29.280Z,0
2017-09-20T00:23:28.624Z,0
2017-09-20T00:24:28.927Z,0
2017-09-20T00:25:28.889Z,0
2017-09-20T00:26:28.870Z,0
2017-09-20T00:27:29.170Z,0
2017-09-20T00:28:29.168Z,0
2017-09-20T00:29:28.509Z,0
2017-09-20T00:30:29.117Z,0
2017-09-20T00:31:28.819Z,0
2017-09-20T00:32:28.769Z,0
2017-09-20T00:33:29.067Z,0
2017-09-20T00:34:28.717Z,0
2017-09-20T00:35:29.018Z,0
2017-09-20T00:36:28.684Z,0
2017-09-20T00:37:28.705Z,0
2017-09-20T00:38:28.642Z,0
2017-09-20T00:39:28.717Z,0
2017-09-20T00:40:28.914Z,0
2017-09-20T00:41:28.718Z,0
2017-09-20T00:42:28.879Z,0
2017-09-20T00:43:28.880Z,0
2017-09-20T00:44:28.839Z,0
2017-09-20T00:45:28.859Z,0
2017-09-20T00:46:28.818Z,0
2017-09-20T00:47:28.788Z,0
2017-09-20T00:48:28.789Z,0
2017-09-20T00:49:28.551Z,0
2017-09-20T00:50:28.720Z,0
2017-09-20T00:51:28.706Z,0
2017-09-20T00:52:28.701Z,0
2017-09-20T00:53:28.709Z,0
2017-09-20T00:54:28.651Z,0
2017-09-20T00:55:28.641Z,0
2017-09-20T00:56:28.388Z,0
2017-09-20T00:57:28.601Z,0
2017-09-20T00:58:28.276Z,0
2017-09-20T00:59:28.650Z,0
2017-09-20T01:00:28.247Z,0
2017-09-20T01:01:27.906Z,0
2017-09-20T01:02:28.512Z,0
2017-09-20T01:03:28.168Z,0
2017-09-20T01:04:28.187Z,0
2017-09-20T01:05:28.562Z,0
2017-09-20T01:06:28.188Z,0
2017-09-20T01:07:28.413Z,0
2017-09-20T01:08:28.094Z,0
2017-09-20T01:09:28.508Z,0
2017-09-20T01:10:28.359Z,0
2017-09-20T01:11:28.018Z,0
2017-09-20T01:12:28.309Z,0
2017-09-20T01:13:28.280Z,0
2017-09-20T01:14:28.271Z,0
2017-09-20T01:15:28.279Z,0
2017-09-20T01:16:27.604Z,0
2017-09-20T01:17:27.988Z,0
2017-09-20T01:18:27.260Z,0
2017-09-20T01:19:27.964Z,0
2017-09-20T01:20:28.280Z,0
2017-09-20T01:21:28.169Z,0
2017-09-20T01:22:28.121Z,0
2017-09-20T01:23:27.860Z,0
2017-09-20T01:24:28.182Z,0
2017-09-20T01:25:27.789Z,0
2017-09-20T01:26:27.727Z,0
2017-09-20T01:27:27.841Z,0
2017-09-20T01:28:27.682Z,0
2017-09-20T01:29:27.663Z,0
2017-09-20T01:30:27.959Z,0
2017-09-20T01:31:27.328Z,0
2017-09-20T01:32:27.607Z,0
2017-09-20T01:33:28.011Z,0
2017-09-20T01:34:27.938Z,0
2017-09-20T01:35:27.232Z,0
2017-09-20T01:36:27.663Z,0
2017-09-20T01:37:27.829Z,0
2017-09-20T01:38:27.482Z,0
2017-09-20T01:39:27.177Z,0
2017-09-20T01:40:27.758Z,0
2017-09-20T01:41:27.543Z,0
2017-09-20T01:42:27.787Z,0
2017-09-20T01:43:27.766Z,0
2017-09-20T01:44:27.065Z,0
2017-09-20T01:45:27.356Z,0
2017-09-20T01:46:27.030Z,0
2017-09-20T01:47:27.436Z,0
2017-09-20T01:48:27.292Z,0
2017-09-20T01:49:26.968Z,0
2017-09-20T01:50:27.612Z,0
2017-09-20T01:51:26.928Z,0
2017-09-20T01:52:27.218Z,0
2017-09-20T01:53:27.251Z,0
2017-09-20T01:54:27.201Z,0
2017-09-20T01:55:27.502Z,0
2017-09-20T01:56:26.837Z,0
2017-09-20T01:57:27.541Z,0
2017-09-20T01:58:26.793Z,0
2017-09-20T01:59:26.770Z,0
2017-09-20T02:00:27.111Z,0
2017-09-20T02:01:27.360Z,0
2017-09-20T02:02:27.349Z,0
2017-09-20T02:03:27.004Z,0
2017-09-20T02:04:26.702Z,0
2017-09-20T02:05:26.968Z,0
2017-09-20T02:06:27.265Z,0
2017-09-20T02:07:26.616Z,0
2017-09-20T02:08:26.597Z,0
2017-09-20T02:09:26.898Z,0
2017-09-20T02:10:26.559Z,0
2017-09-20T02:11:26.859Z,0
2017-09-20T02:12:27.139Z,0
2017-09-20T02:13:27.260Z,0
2017-09-20T02:14:26.811Z,0
2017-09-20T02:15:27.088Z,0
2017-09-20T02:16:26.752Z,0
2017-09-20T02:17:27.068Z,0
2017-09-20T02:18:27.011Z,0
2017-09-20T02:19:26.751Z,0
2017-09-20T02:20:26.690Z,0
2017-09-20T02:21:26.999Z,0
2017-09-20T02:22:26.342Z,0
2017-09-20T02:23:26.356Z,0
2017-09-20T02:24:26.918Z,0
2017-09-20T02:25:26.918Z,0
2017-09-20T02:26:26.553Z,0
2017-09-20T02:27:26.536Z,0
2017-09-20T02:28:26.829Z,0
2017-09-20T02:29:26.506Z,0
2017-09-20T02:30:26.187Z,0
2017-09-20T02:31:26.472Z,0
2017-09-20T02:32:26.457Z,0
2017-09-20T02:33:26.751Z,0
2017-09-20T02:34:26.433Z,0
2017-09-20T02:35:26.430Z,0
2017-09-20T02:36:26.692Z,0
2017-09-20T02:37:26.361Z,0
2017-09-20T02:38:26.430Z,0
2017-09-20T02:39:26.635Z,0
2017-09-20T02:40:26.295Z,0
2017-09-20T02:41:26.588Z,0
2017-09-20T02:42:26.584Z,0
2017-09-20T02:43:26.248Z,0
2017-09-20T02:44:26.257Z,0
2017-09-20T02:45:26.510Z,0
2017-09-20T02:46:25.859Z,0
2017-09-20T02:47:25.871Z,0
2017-09-20T02:48:26.446Z,0
2017-09-20T02:49:26.428Z,0
2017-09-20T02:50:26.098Z,0
2017-09-20T02:51:26.410Z,0
2017-09-20T02:52:26.126Z,0
2017-09-20T02:53:26.099Z,0
2017-09-20T02:54:25.412Z,0
2017-09-20T02:55:26.067Z,0
2017-09-20T02:56:25.978Z,0
2017-09-20T02:57:26.299Z,0
2017-09-20T02:58:25.950Z,0
2017-09-20T02:59:25.615Z,0
2017-09-20T03:00:25.905Z,0
2017-09-20T03:01:26.193Z,0
2017-09-20T03:02:25.870Z,0
2017-09-20T03:03:25.212Z,0
2017-09-20T03:04:26.159Z,0
2017-09-20T03:05:25.487Z,0
2017-09-20T03:06:25.785Z,0
2017-09-20T03:07:26.257Z,0
2017-09-20T03:08:26.040Z,0
2017-09-20T03:09:25.790Z,0
2017-09-20T03:10:26.002Z,0
2017-09-20T03:11:25.989Z,0
2017-09-20T03:12:25.341Z,0
2017-09-20T03:13:25.971Z,0
2017-09-20T03:14:25.942Z,0
2017-09-20T03:15:25.631Z,0
2017-09-20T03:16:25.891Z,0
2017-09-20T03:17:25.899Z,0
2017-09-20T03:18:25.849Z,0
2017-09-20T03:19:25.219Z,0
2017-09-20T03:20:25.512Z,0
2017-09-20T03:21:25.529Z,0
2017-09-20T03:22:25.459Z,0
2017-09-20T03:23:25.126Z,0
2017-09-20T03:24:25.408Z,0
2017-09-20T03:25:25.410Z,0
2017-09-20T03:26:25.079Z,0
2017-09-20T03:27:25.052Z,0
2017-09-20T03:28:25.665Z,0
2017-09-20T03:29:25.338Z,0
2017-09-20T03:30:24.985Z,0
2017-09-20T03:31:25.584Z,0
2017-09-20T03:32:24.649Z,0
2017-09-20T03:33:25.561Z,0
2017-09-20T03:34:24.918Z,0
2017-09-20T03:35:25.204Z,0
2017-09-20T03:36:24.888Z,0
2017-09-20T03:37:24.866Z,0
2017-09-20T03:38:24.535Z,0
2017-09-20T03:39:25.484Z,0
2017-09-20T03:40:25.116Z,0
2017-09-20T03:41:25.400Z,0
2017-09-20T03:42:25.400Z,0
2017-09-20T03:43:25.077Z,0
2017-09-20T03:44:24.733Z,0
2017-09-20T03:45:25.022Z,0
2017-09-20T03:46:25.309Z,0
2017-09-20T03:47:24.381Z,0
2017-09-20T03:48:24.958Z,0
2017-09-20T03:49:25.256Z,0
2017-09-20T03:50:25.238Z,0
2017-09-20T03:51:25.210Z,0
2017-09-20T03:52:25.185Z,0
2017-09-20T03:53:24.277Z,0
2017-09-20T03:54:24.865Z,0
2017-09-20T03:55:24.560Z,0
2017-09-20T03:56:24.812Z,0
2017-09-20T03:57:25.089Z,0
2017-09-20T03:58:24.761Z,0
2017-09-20T03:59:24.759Z,0
2017-09-20T04:00:24.425Z,0
2017-09-20T04:01:24.706Z,0
2017-09-20T04:02:25.000Z,0
2017-09-20T04:03:24.349Z,0
2017-09-20T04:04:24.959Z,0
2017-09-20T04:05:24.644Z,0
2017-09-20T04:06:24.921Z,0
2017-09-20T04:07:24.599Z,0
2017-09-20T04:08:24.672Z,0
2017-09-20T04:09:24.558Z,0
2017-09-20T04:10:24.218Z,0
2017-09-20T04:11:23.891Z,0
2017-09-20T04:12:24.804Z,0
2017-09-20T04:13:24.779Z,0
2017-09-20T04:14:24.769Z,0
2017-09-20T04:15:24.125Z,0
2017-09-20T04:16:24.097Z,0
2017-09-20T04:17:24.401Z,0
2017-09-20T04:18:24.066Z,0
2017-09-20T04:19:24.379Z,0
2017-09-20T04:20:24.694Z,0
2017-09-20T04:21:24.328Z,0
2017-09-20T04:22:24.312Z,0
2017-09-20T04:23:24.288Z,0
2017-09-20T04:24:24.272Z,0
2017-09-20T04:25:24.250Z,0
2017-09-20T04:26:24.268Z,0
2017-09-20T04:27:24.520Z,0
2017-09-20T04:28:24.482Z,0
2017-09-20T04:29:24.189Z,0
2017-09-20T04:30:24.159Z,0
2017-09-20T04:31:24.132Z,0
2017-09-20T04:32:24.417Z,0
2017-09-20T04:33:24.100Z,0
2017-09-20T04:34:23.777Z,0
2017-09-20T04:35:24.370Z,0
2017-09-20T04:36:24.028Z,0
2017-09-20T04:37:24.052Z,0
2017-09-20T04:38:23.985Z,0
2017-09-20T04:39:24.020Z,0
2017-09-20T04:40:23.953Z,0
2017-09-20T04:41:24.250Z,4
2017-09-20T04:42:23.920Z,4
2017-09-20T04:43:24.202Z,4
2017-09-20T04:44:24.180Z,4
2017-09-20T04:45:23.852Z,4
2017-09-20T04:46:24.140Z,4
2017-09-20T04:47:24.130Z,4
2017-09-20T04:48:23.790Z,0
2017-09-20T04:49:23.787Z,0
2017-09-20T04:50:24.098Z,4
2017-09-20T04:51:23.759Z,4
2017-09-20T04:52:24.030Z,4
2017-09-20T04:53:24.020Z,4
2017-09-20T04:54:24.001Z,4
2017-09-20T04:55:23.986Z,8
2017-09-20T04:56:23.336Z,8
2017-09-20T04:57:23.938Z,8
2017-09-20T04:58:23.902Z,8
2017-09-20T04:59:23.879Z,8
2017-09-20T05:00:23.247Z,8
2017-09-20T05:01:23.560Z,12
2017-09-20T05:02:23.532Z,20
2017-09-20T05:03:23.823Z,20
2017-09-20T05:04:23.808Z,20
2017-09-20T05:05:23.774Z,24
2017-09-20T05:06:23.771Z,24
2017-09-20T05:07:23.728Z,28
2017-09-20T05:08:23.723Z,24
2017-09-20T05:09:23.693Z,28
2017-09-20T05:10:23.349Z,28
2017-09-20T05:11:23.659Z,28
2017-09-20T05:12:23.329Z,36
2017-09-20T05:13:23.298Z,40
2017-09-20T05:14:23.273Z,44
2017-09-20T05:15:23.274Z,48
2017-09-20T05:16:23.570Z,56
2017-09-20T05:17:23.541Z,68
2017-09-20T05:18:23.199Z,72
2017-09-20T05:19:23.501Z,84
2017-09-20T05:20:23.467Z,96
2017-09-20T05:21:23.199Z,112
2017-09-20T05:22:23.122Z,120
2017-09-20T05:23:22.788Z,136
2017-09-20T05:24:23.090Z,144
2017-09-20T05:25:22.758Z,148
2017-09-20T05:26:23.029Z,148
2017-09-20T05:27:22.770Z,140
2017-09-20T05:28:22.701Z,128
2017-09-20T05:29:23.292Z,132
2017-09-20T05:30:22.964Z,136
2017-09-20T05:31:22.999Z,140
2017-09-20T05:32:22.631Z,144
2017-09-20T05:33:22.930Z,156
2017-09-20T05:34:22.917Z,168
2017-09-20T05:35:22.869Z,192
2017-09-20T05:36:23.176Z,216
2017-09-20T05:37:22.552Z,248
2017-09-20T05:38:23.149Z,256
2017-09-20T05:39:22.807Z,256
2017-09-20T05:40:22.461Z,248
2017-09-20T05:41:23.069Z,244
2017-09-20T05:42:22.750Z,240
2017-09-20T05:43:23.019Z,240
2017-09-20T05:44:22.699Z,240
2017-09-20T05:45:22.692Z,232
2017-09-20T05:46:22.993Z,240
2017-09-20T05:47:22.364Z,236
2017-09-20T05:48:22.954Z,244
2017-09-20T05:49:22.297Z,240
2017-09-20T05:50:22.588Z,248
2017-09-20T05:51:22.347Z,264
2017-09-20T05:52:22.523Z,296
2017-09-20T05:53:22.522Z,308
2017-09-20T05:54:22.814Z,320
2017-09-20T05:55:22.790Z,340
2017-09-20T05:56:22.570Z,360
2017-09-20T05:57:22.762Z,372
2017-09-20T05:58:22.740Z,392
2017-09-20T05:59:22.101Z,412
2017-09-20T06:00:22.713Z,436
2017-09-20T06:01:22.680Z,448
2017-09-20T06:02:22.046Z,448
2017-09-20T06:03:22.321Z,440
2017-09-20T06:04:22.359Z,448
2017-09-20T06:05:22.292Z,452
2017-09-20T06:06:21.980Z,452
2017-09-20T06:07:22.247Z,452
2017-09-20T06:08:21.610Z,456
2017-09-20T06:09:22.210Z,460
2017-09-20T06:10:22.240Z,464
2017-09-20T06:11:22.492Z,480
2017-09-20T06:12:22.160Z,488
2017-09-20T06:13:21.514Z,500
2017-09-20T06:14:22.138Z,512
2017-09-20T06:15:21.778Z,520
2017-09-20T06:16:22.070Z,528
2017-09-20T06:17:22.381Z,528
2017-09-20T06:18:22.024Z,532
2017-09-20T06:19:22.129Z,544
2017-09-20T06:20:22.138Z,548
2017-09-20T06:21:22.294Z,528
2017-09-20T06:22:22.271Z,500
2017-09-20T06:23:21.632Z,492
2017-09-20T06:24:21.968Z,496
2017-09-20T06:25:22.228Z,520
2017-09-20T06:26:22.191Z,536
2017-09-20T06:27:22.167Z,532
2017-09-20T06:28:22.160Z,512
2017-09-20T06:29:21.932Z,508
2017-09-20T06:30:22.110Z,528
2017-09-20T06:31:21.791Z,560
2017-09-20T06:32:22.069Z,608
2017-09-20T06:33:21.764Z,688
2017-09-20T06:34:21.736Z,768
2017-09-20T06:35:22.032Z,872
2017-09-20T06:36:22.011Z,976
2017-09-20T06:37:21.660Z,1056
2017-09-20T06:38:21.650Z,1176
2017-09-20T06:39:21.944Z,1360
2017-09-20T06:40:21.923Z,1452
2017-09-20T06:41:21.582Z,1380
2017-09-20T06:42:21.897Z,1300
2017-09-20T06:43:21.626Z,1240
2017-09-20T06:44:21.833Z,1244
2017-09-20T06:45:21.515Z,1268
2017-09-20T06:46:21.518Z,1264
2017-09-20T06:47:21.782Z,1212
2017-09-20T06:48:21.770Z,1112
2017-09-20T06:49:21.730Z,1072
2017-09-20T06:50:21.732Z,1088
2017-09-20T06:51:21.391Z,1104
2017-09-20T06:52:21.689Z,1128
2017-09-20T06:53:21.675Z,1164
2017-09-20T06:54:21.639Z,1212
2017-09-20T06:55:21.641Z,1280
2017-09-20T06:56:21.613Z,1344
2017-09-20T06:57:21.594Z,1448
2017-09-20T06:58:21.570Z,1524
2017-09-20T06:59:21.602Z,1556
2017-09-20T07:00:21.218Z,1580
2017-09-20T07:01:21.199Z,1616
2017-09-20T07:02:21.179Z,1564
2017-09-20T07:03:20.859Z,1532
2017-09-20T07:04:21.137Z,1500
2017-09-20T07:05:21.439Z,1424
2017-09-20T07:06:21.427Z,1320
2017-09-20T07:07:21.137Z,1248
2017-09-20T07:08:21.086Z,1204
2017-09-20T07:09:21.105Z,1172
2017-09-20T07:10:21.322Z,1140
2017-09-20T07:11:21.321Z,1116
2017-09-20T07:12:21.340Z,1104
2017-09-20T07:13:20.400Z,1116
2017-09-20T07:14:20.940Z,1120
2017-09-20T07:15:21.240Z,1100
2017-09-20T07:16:21.220Z,1040
2017-09-20T07:17:21.211Z,1012
2017-09-20T07:18:21.170Z,964
2017-09-20T07:19:21.197Z,936
2017-09-20T07:20:20.842Z,908
2017-09-20T07:21:21.150Z,880
2017-09-20T07:22:20.170Z,844
2017-09-20T07:23:21.077Z,808
2017-09-20T07:24:20.511Z,796
2017-09-20T07:25:21.060Z,820
2017-09-20T07:26:20.418Z,860
2017-09-20T07:27:20.400Z,912
2017-09-20T07:28:20.688Z,980
2017-09-20T07:29:20.968Z,1048
2017-09-20T07:30:20.382Z,1056
2017-09-20T07:31:20.722Z,1012
2017-09-20T07:32:20.636Z,968
2017-09-20T07:33:19.986Z,928
2017-09-20T07:34:20.891Z,844
2017-09-20T07:35:20.261Z,776
2017-09-20T07:36:20.848Z,744
2017-09-20T07:37:20.505Z,720
2017-09-20T07:38:20.492Z,684
2017-09-20T07:39:20.212Z,652
2017-09-20T07:40:20.760Z,632
2017-09-20T07:41:20.442Z,612
2017-09-20T07:42:20.723Z,596
2017-09-20T07:43:20.730Z,600
2017-09-20T07:44:20.708Z,660
2017-09-20T07:45:20.042Z,760
2017-09-20T07:46:20.647Z,880
2017-09-20T07:47:20.621Z,1020
2017-09-20T07:48:19.994Z,1136
2017-09-20T07:49:19.963Z,1176
2017-09-20T07:50:19.939Z,1200
2017-09-20T07:51:20.338Z,1268
2017-09-20T07:52:20.223Z,1264
2017-09-20T07:53:20.252Z,1184
2017-09-20T07:54:20.500Z,1124
2017-09-20T07:55:20.158Z,1108
2017-09-20T07:56:20.134Z,1128
2017-09-20T07:57:20.231Z,1244
2017-09-20T07:58:20.434Z,1500
2017-09-20T07:59:20.199Z,1744
2017-09-20T08:00:20.174Z,1772
2017-09-20T08:01:19.741Z,1696
2017-09-20T08:02:20.031Z,1640
2017-09-20T08:03:20.320Z,1564
2017-09-20T08:04:20.298Z,1532
2017-09-20T08:05:20.017Z,1532
2017-09-20T08:06:20.009Z,1560
2017-09-20T08:07:20.256Z,1536
2017-09-20T08:08:19.620Z,1504
2017-09-20T08:09:20.218Z,1368
2017-09-20T08:10:19.888Z,1176
2017-09-20T08:11:19.961Z,972
2017-09-20T08:12:19.533Z,808
2017-09-20T08:13:20.153Z,732
2017-09-20T08:14:19.513Z,716
2017-09-20T08:15:19.819Z,756
2017-09-20T08:16:19.785Z,872
2017-09-20T08:17:19.760Z,1068
2017-09-20T08:18:19.109Z,1316
2017-09-20T08:19:19.750Z,1556
2017-09-20T08:20:20.006Z,1744
2017-09-20T08:21:19.355Z,1808
2017-09-20T08:22:19.337Z,1760
2017-09-20T08:23:19.326Z,1688
2017-09-20T08:24:19.929Z,1656
2017-09-20T08:25:19.301Z,1544
2017-09-20T08:26:19.269Z,1388
2017-09-20T08:27:19.868Z,1260
2017-09-20T08:28:19.530Z,1236
2017-09-20T08:29:19.841Z,1300
2017-09-20T08:30:19.496Z,1428
2017-09-20T08:31:19.487Z,1564
2017-09-20T08:32:19.781Z,1536
2017-09-20T08:33:19.438Z,1532
2017-09-20T08:34:19.118Z,1648
2017-09-20T08:35:19.084Z,1788
2017-09-20T08:36:19.387Z,1920
2017-09-20T08:37:19.358Z,2328
2017-09-20T08:38:19.338Z,3028
2017-09-20T08:39:19.658Z,3812
2017-09-20T08:40:19.321Z,4716
2017-09-20T08:41:19.289Z,5728
2017-09-20T08:42:19.268Z,6200
2017-09-20T08:43:19.271Z,5812
2017-09-20T08:44:19.228Z,5104
2017-09-20T08:45:19.350Z,4704
2017-09-20T08:46:18.879Z,4604
2017-09-20T08:47:19.188Z,4724
2017-09-20T08:48:19.160Z,5304
2017-09-20T08:49:19.140Z,5608
2017-09-20T08:50:19.138Z,5584
2017-09-20T08:51:19.112Z,5280
2017-09-20T08:52:19.439Z,5320
2017-09-20T08:53:19.398Z,5172
2017-09-20T08:54:19.359Z,5100
2017-09-20T08:55:19.348Z,5104
2017-09-20T08:56:18.993Z,5336
2017-09-20T08:57:19.308Z,5872
2017-09-20T08:58:19.293Z,6600
2017-09-20T08:59:18.971Z,7084
2017-09-20T09:00:18.959Z,8032
2017-09-20T09:01:19.219Z,9056
2017-09-20T09:02:18.993Z,10096
2017-09-20T09:03:19.197Z,8180
2017-09-20T09:04:19.198Z,7532
2017-09-20T09:05:19.178Z,7084
2017-09-20T09:06:19.168Z,6968
2017-09-20T09:07:19.201Z,6668
2017-09-20T09:08:19.190Z,6336
2017-09-20T09:09:18.769Z,6072
2017-09-20T09:10:19.075Z,5584
2017-09-20T09:11:18.779Z,5520
2017-09-20T09:12:18.760Z,5448
2017-09-20T09:13:18.721Z,5812
2017-09-20T09:14:19.009Z,5660
2017-09-20T09:15:18.658Z,6220
2017-09-20T09:16:19.011Z,6956
2017-09-20T09:17:18.981Z,7880
2017-09-20T09:18:18.630Z,7184
2017-09-20T09:19:18.898Z,8392
2017-09-20T09:20:18.582Z,7332
2017-09-20T09:21:18.568Z,7312
2017-09-20T09:22:18.837Z,8212
2017-09-20T09:23:18.540Z,7608
2017-09-20T09:24:18.485Z,6812
2017-09-20T09:25:18.527Z,7628
2017-09-20T09:26:18.778Z,7288
2017-09-20T09:27:18.819Z,6796
2017-09-20T09:28:18.747Z,6216
2017-09-20T09:29:18.729Z,5924
2017-09-20T09:30:18.559Z,6380
2017-09-20T09:31:18.789Z,7312
2017-09-20T09:32:18.679Z,8788
2017-09-20T09:33:18.459Z,9512
2017-09-20T09:34:18.639Z,8272
2017-09-20T09:35:18.665Z,9556
2017-09-20T09:36:18.710Z,8964
2017-09-20T09:37:18.288Z,10004
2017-09-20T09:38:18.585Z,8752
2017-09-20T09:39:17.935Z,7928
2017-09-20T09:40:18.535Z,6032
2017-09-20T09:41:18.550Z,5584
2017-09-20T09:42:18.623Z,4904
2017-09-20T09:43:18.501Z,5268
2017-09-20T09:44:18.297Z,5172
2017-09-20T09:45:17.830Z,4572
2017-09-20T09:46:18.129Z,4848
2017-09-20T09:47:18.458Z,5400
2017-09-20T09:48:18.101Z,5312
2017-09-20T09:49:17.759Z,5156
2017-09-20T09:50:18.065Z,4664
2017-09-20T09:51:18.428Z,4116
2017-09-20T09:52:17.719Z,3908
2017-09-20T09:53:17.700Z,4452
2017-09-20T09:54:18.006Z,5308
2017-09-20T09:55:17.973Z,5496
2017-09-20T09:56:18.271Z,5624
2017-09-20T09:57:17.635Z,5748
2017-09-20T09:58:18.252Z,5916
2017-09-20T09:59:17.971Z,6340
2017-09-20T10:00:18.196Z,6688
2017-09-20T10:01:18.193Z,7056
2017-09-20T10:02:18.154Z,6348
2017-09-20T10:03:17.880Z,6476
2017-09-20T10:04:17.522Z,6348
2017-09-20T10:05:18.124Z,5664
2017-09-20T10:06:17.788Z,5384
2017-09-20T10:07:17.453Z,4560
2017-09-20T10:08:17.442Z,5016
2017-09-20T10:09:18.040Z,4716
2017-09-20T10:10:18.047Z,4488
2017-09-20T10:11:18.015Z,4580
2017-09-20T10:12:17.691Z,4600
2017-09-20T10:13:17.983Z,4944
2017-09-20T10:14:17.965Z,4924
2017-09-20T10:15:17.317Z,5572
2017-09-20T10:16:17.303Z,6780
2017-09-20T10:17:17.921Z,7240
2017-09-20T10:18:17.269Z,7724
2017-09-20T10:19:17.903Z,8408
2017-09-20T10:20:17.549Z,9172
2017-09-20T10:21:17.223Z,9192
2017-09-20T10:22:17.240Z,8820
2017-09-20T10:23:17.527Z,9024
2017-09-20T10:24:17.504Z,9764
2017-09-20T10:25:17.838Z,10544
2017-09-20T10:26:17.862Z,10148
2017-09-20T10:27:17.446Z,9624
2017-09-20T10:28:17.431Z,10076
2017-09-20T10:29:17.468Z,12052
2017-09-20T10:30:17.084Z,11808
2017-09-20T10:31:17.169Z,11116
2017-09-20T10:32:16.729Z,10160
2017-09-20T10:33:16.721Z,8572
2017-09-20T10:34:17.333Z,8584
2017-09-20T10:35:17.732Z,8648
2017-09-20T10:36:17.287Z,7564
2017-09-20T10:37:17.629Z,8036
2017-09-20T10:38:17.281Z,8460
2017-09-20T10:39:17.250Z,8416
2017-09-20T10:40:17.327Z,8316
2017-09-20T10:41:17.223Z,8632
2017-09-20T10:42:16.895Z,9668
2017-09-20T10:43:17.178Z,9008
2017-09-20T10:44:16.860Z,12032
2017-09-20T10:45:17.478Z,13436
2017-09-20T10:46:17.211Z,12452
2017-09-20T10:47:17.110Z,11536
2017-09-20T10:48:16.786Z,9748
2017-09-20T10:49:17.125Z,10296
2017-09-20T10:50:17.059Z,11512
2017-09-20T10:51:16.737Z,11348
2017-09-20T10:52:16.732Z,11828
2017-09-20T10:53:17.320Z,10768
2017-09-20T10:54:17.329Z,10892
2017-09-20T10:55:17.001Z,11216
2017-09-20T10:56:17.310Z,10708
2017-09-20T10:57:16.960Z,10680
2017-09-20T10:58:16.960Z,11104
2017-09-20T10:59:16.943Z,11096
2017-09-20T11:00:16.932Z,10900
2017-09-20T11:01:16.922Z,10636
2017-09-20T11:02:17.211Z,9880
2017-09-20T11:03:17.182Z,9004
2017-09-20T11:04:17.163Z,8432
2017-09-20T11:05:17.161Z,8460
2017-09-20T11:06:17.132Z,8800
2017-09-20T11:07:17.152Z,9032
2017-09-20T11:08:16.800Z,8656
2017-09-20T11:09:17.090Z,7664
2017-09-20T11:10:17.120Z,6608
2017-09-20T11:11:17.063Z,5308
2017-09-20T11:12:17.061Z,4380
2017-09-20T11:13:17.050Z,4092
2017-09-20T11:14:16.721Z,4152
2017-09-20T11:15:16.690Z,4580
2017-09-20T11:16:16.992Z,4676
2017-09-20T11:17:16.991Z,4536
2017-09-20T11:18:16.960Z,4892
2017-09-20T11:19:16.959Z,5488
2017-09-20T11:20:16.953Z,5824
2017-09-20T11:21:16.911Z,5724
2017-09-20T11:22:16.925Z,6236
2017-09-20T11:23:16.885Z,6220
2017-09-20T11:24:16.885Z,5484
2017-09-20T11:25:16.872Z,4880
2017-09-20T11:26:16.926Z,4860
2017-09-20T11:27:16.862Z,5000
2017-09-20T11:28:16.808Z,4752
2017-09-20T11:29:16.172Z,4860
2017-09-20T11:30:16.785Z,5256
2017-09-20T11:31:16.776Z,5740
2017-09-20T11:32:16.776Z,6088
2017-09-20T11:33:16.747Z,6556
2017-09-20T11:34:16.716Z,6728
2017-09-20T11:35:16.724Z,6440
2017-09-20T11:36:16.463Z,5860
2017-09-20T11:37:16.464Z,5176
2017-09-20T11:38:16.654Z,4956
2017-09-20T11:39:16.380Z,4928
2017-09-20T11:40:16.632Z,4684
2017-09-20T11:41:16.610Z,4332
2017-09-20T11:42:16.285Z,4220
2017-09-20T11:43:16.272Z,4260
2017-09-20T11:44:16.593Z,4152
2017-09-20T11:45:16.243Z,3824
2017-09-20T11:46:16.522Z,3948
2017-09-20T11:47:16.201Z,4652
2017-09-20T11:48:16.292Z,5168
2017-09-20T11:49:16.181Z,5496
2017-09-20T11:50:16.462Z,5728
2017-09-20T11:51:16.151Z,5724
2017-09-20T11:52:16.172Z,5600
2017-09-20T11:53:16.410Z,5528
2017-09-20T11:54:16.421Z,5612
2017-09-20T11:55:16.392Z,5680
2017-09-20T11:56:16.380Z,5780
2017-09-20T11:57:16.374Z,5800
2017-09-20T11:58:16.342Z,5748
2017-09-20T11:59:16.326Z,5668
2017-09-20T12:00:16.048Z,5628
2017-09-20T12:01:16.291Z,5524
2017-09-20T12:02:15.649Z,5472
2017-09-20T12:03:16.256Z,5440
2017-09-20T12:04:16.252Z,5424
2017-09-20T12:05:16.228Z,5316
2017-09-20T12:06:16.318Z,5424
2017-09-20T12:07:16.191Z,5528
2017-09-20T12:08:16.182Z,5404
2017-09-20T12:09:15.841Z,5240
2017-09-20T12:10:15.520Z,5072
2017-09-20T12:11:15.834Z,4844
2017-09-20T12:12:16.127Z,4672
2017-09-20T12:13:15.802Z,4436
2017-09-20T12:14:15.791Z,4072
2017-09-20T12:15:15.771Z,3744
2017-09-20T12:16:15.481Z,3544
2017-09-20T12:17:16.053Z,3408
2017-09-20T12:18:16.033Z,3124
2017-09-20T12:19:15.070Z,2888
2017-09-20T12:20:15.692Z,2644
2017-09-20T12:21:15.922Z,2288
2017-09-20T12:22:15.407Z,2004
2017-09-20T12:23:15.632Z,1832
2017-09-20T12:24:15.981Z,1716
2017-09-20T12:25:15.602Z,1672
2017-09-20T12:26:15.922Z,1648
2017-09-20T12:27:15.573Z,1608
2017-09-20T12:28:15.637Z,1516
2017-09-20T12:29:15.530Z,1456
2017-09-20T12:30:15.523Z,1440
2017-09-20T12:31:15.510Z,1420
2017-09-20T12:32:15.628Z,1304
2017-09-20T12:33:15.813Z,1168
2017-09-20T12:34:15.484Z,1100
2017-09-20T12:35:15.785Z,1104
2017-09-20T12:36:15.464Z,1160
2017-09-20T12:37:15.452Z,1180
2017-09-20T12:38:15.405Z,1240
2017-09-20T12:39:15.380Z,1316
2017-09-20T12:40:15.714Z,1352
2017-09-20T12:41:15.702Z,1336
2017-09-20T12:42:15.720Z,1308
2017-09-20T12:43:16.248Z,1328
2017-09-20T12:44:15.332Z,1388
2017-09-20T12:45:15.332Z,1408
2017-09-20T12:46:14.952Z,1460
2017-09-20T12:47:15.263Z,1492
2017-09-20T12:48:15.544Z,1604
2017-09-20T12:49:14.605Z,1780
2017-09-20T12:50:15.514Z,1924
2017-09-20T12:51:15.480Z,1976
2017-09-20T12:52:15.514Z,2008
2017-09-20T12:53:15.169Z,1988
2017-09-20T12:54:15.147Z,1956
2017-09-20T12:55:15.432Z,1940
2017-09-20T12:56:15.127Z,1928
2017-09-20T12:57:15.085Z,1912
2017-09-20T12:58:15.443Z,1964
2017-09-20T12:59:15.043Z,2060
2017-09-20T13:00:15.022Z,2196
2017-09-20T13:01:15.011Z,2352
2017-09-20T13:02:14.684Z,2484
2017-09-20T13:03:14.741Z,2588
2017-09-20T13:04:14.978Z,2680
2017-09-20T13:05:14.949Z,2812
2017-09-20T13:06:14.680Z,2984
2017-09-20T13:07:14.912Z,3176
2017-09-20T13:08:14.897Z,3344
2017-09-20T13:09:14.562Z,3456
2017-09-20T13:10:15.175Z,3508
2017-09-20T13:11:14.841Z,3452
2017-09-20T13:12:14.526Z,3368
2017-09-20T13:13:14.833Z,3264
2017-09-20T13:14:14.813Z,3208
2017-09-20T13:15:14.481Z,3168
2017-09-20T13:16:15.143Z,3140
2017-09-20T13:17:14.182Z,3188
2017-09-20T13:18:14.714Z,3332
2017-09-20T13:19:14.716Z,3508
2017-09-20T13:20:14.693Z,3696
2017-09-20T13:21:15.019Z,3944
2017-09-20T13:22:14.676Z,4100
2017-09-20T13:23:15.005Z,4220
2017-09-20T13:24:14.639Z,4332
2017-09-20T13:25:14.929Z,4456
2017-09-20T13:26:14.601Z,4580
2017-09-20T13:27:14.283Z,4632
2017-09-20T13:28:14.882Z,4668
2017-09-20T13:29:14.868Z,4740
2017-09-20T13:30:14.521Z,4924
2017-09-20T13:31:14.832Z,5124
2017-09-20T13:32:14.203Z,5272
2017-09-20T13:33:14.492Z,5392
2017-09-20T13:34:14.791Z,5456
2017-09-20T13:35:14.790Z,5388
2017-09-20T13:36:14.731Z,5348
2017-09-20T13:37:14.447Z,5412
2017-09-20T13:38:14.431Z,5172
2017-09-20T13:39:14.720Z,4940
2017-09-20T13:40:14.072Z,4760
2017-09-20T13:41:14.690Z,4664
2017-09-20T13:42:14.346Z,4672
2017-09-20T13:43:14.618Z,4676
2017-09-20T13:44:14.634Z,4580
2017-09-20T13:45:14.599Z,4380
2017-09-20T13:46:14.591Z,4064
2017-09-20T13:47:14.581Z,3732
2017-09-20T13:48:14.578Z,3464
2017-09-20T13:49:14.543Z,3264
2017-09-20T13:50:14.541Z,3140
2017-09-20T13:51:14.202Z,3048
2017-09-20T13:52:14.501Z,2980